createdAt,value
2022-09-15T00:01:43.293Z,99032.00
2022-09-15T00:04:13.927Z,99036.00
2022-09-15T00:06:43.184Z,99035.00
2022-09-15T00:09:12.481Z,99034.00
2022-09-15T00:11:41.613Z,99031.00
2022-09-15T00:14:10.951Z,99040.00
2022-09-15T00:16:40.595Z,99034.00
2022-09-15T00:19:09.272Z,99035.00
2022-09-15T00:21:41.403Z,99042.00
2022-09-15T00:24:11.098Z,99043.00
2022-09-15T00:26:39.789Z,99034.00
2022-09-15T00:29:08.500Z,99040.00
2022-09-15T00:31:37.087Z,99038.00
2022-09-15T00:34:07.111Z,99064.00
2022-09-15T00:36:35.881Z,99068.00
2022-09-15T00:39:06.230Z,99057.00
2022-09-15T00:41:34.730Z,99058.00
2022-09-15T00:44:05.868Z,99059.00
2022-09-15T00:46:37.808Z,99054.00
2022-09-15T00:49:10.606Z,99061.00
2022-09-15T00:51:41.962Z,99055.00
2022-09-15T00:54:17.142Z,99058.00
2022-09-15T00:56:47.558Z,99057.00
2022-09-15T00:59:19.175Z,99066.00
2022-09-15T01:01:50.724Z,99071.00
2022-09-15T01:04:19.553Z,99059.00
2022-09-15T01:06:53.472Z,99057.00
2022-09-15T01:09:27.808Z,99055.00
2022-09-15T01:11:56.393Z,99076.00
2022-09-15T01:14:24.855Z,99070.00
2022-09-15T01:17:00.073Z,99078.00
2022-09-15T01:19:54.307Z,99073.00
2022-09-15T01:22:37.805Z,99075.00
2022-09-15T01:25:15.658Z,99089.00
2022-09-15T01:28:29.564Z,99089.00
2022-09-15T01:31:03.753Z,99074.00
2022-09-15T01:33:37.681Z,99095.00
2022-09-15T01:36:12.423Z,99089.00
2022-09-15T01:38:51.564Z,99080.00
2022-09-15T01:41:25.467Z,99084.00
2022-09-15T01:44:00.818Z,99073.00
2022-09-15T01:46:33.849Z,99073.00
2022-09-15T01:49:04.578Z,99070.00
2022-09-15T01:51:34.713Z,99068.00
2022-09-15T01:54:06.084Z,99063.00
2022-09-15T01:56:34.767Z,99079.00
2022-09-15T01:59:03.717Z,99078.00
2022-09-15T02:01:47.096Z,99075.00
2022-09-15T02:04:19.291Z,99075.00
2022-09-15T02:06:53.616Z,99078.00
2022-09-15T02:09:27.317Z,99079.00
2022-09-15T02:12:04.321Z,99072.00
2022-09-15T02:14:48.096Z,99070.00
2022-09-15T02:17:20.597Z,99075.00
2022-09-15T02:19:53.902Z,99079.00
2022-09-15T02:22:27.160Z,99076.00
2022-09-15T02:25:02.868Z,99073.00
2022-09-15T02:27:36.513Z,99074.00
2022-09-15T02:30:08.988Z,99083.00
2022-09-15T02:32:41.169Z,99077.00
2022-09-15T02:35:11.895Z,99085.00
2022-09-15T02:37:40.486Z,99079.00
2022-09-15T02:40:10.361Z,99082.00
2022-09-15T02:42:39.159Z,99080.00
2022-09-15T02:45:09.155Z,99086.00
2022-09-15T02:47:39.180Z,99081.00
2022-09-15T02:50:08.874Z,99080.00
2022-09-15T02:52:37.358Z,99074.00
2022-09-15T02:55:06.880Z,99077.00
2022-09-15T02:57:35.340Z,99076.00
2022-09-15T03:00:14.447Z,99073.00
2022-09-15T03:02:46.644Z,99081.00
2022-09-15T03:05:16.116Z,99083.00
2022-09-15T03:07:44.929Z,99080.00
2022-09-15T03:10:14.634Z,99070.00
2022-09-15T03:12:45.289Z,99079.00
2022-09-15T03:15:16.043Z,99079.00
2022-09-15T03:17:48.029Z,99071.00
2022-09-15T03:20:18.149Z,99066.00
2022-09-15T03:22:46.616Z,99066.00
2022-09-15T03:25:15.063Z,99086.00
2022-09-15T03:27:43.846Z,99083.00
2022-09-15T03:30:13.721Z,99071.00
2022-09-15T03:32:42.425Z,99075.00
2022-09-15T03:35:12.522Z,99072.00
2022-09-15T03:37:40.963Z,99064.00
2022-09-15T03:40:11.313Z,99075.00
2022-09-15T03:42:39.890Z,99073.00
2022-09-15T03:45:09.062Z,99071.00
2022-09-15T03:47:37.589Z,99064.00
2022-09-15T03:50:07.058Z,99064.00
2022-09-15T03:52:36.847Z,99068.00
2022-09-15T03:55:05.563Z,99071.00
2022-09-15T03:57:34.026Z,99071.00
2022-09-15T04:00:02.581Z,99082.00
2022-09-15T04:02:31.041Z,99079.00
2022-09-15T04:04:59.855Z,99069.00
2022-09-15T04:07:28.284Z,99086.00
2022-09-15T04:09:58.127Z,99076.00
2022-09-15T04:12:26.586Z,99072.00
2022-09-15T04:14:55.306Z,99075.00
2022-09-15T04:17:23.819Z,99079.00
2022-09-15T04:19:52.285Z,99079.00
2022-09-15T04:22:20.830Z,99072.00
2022-09-15T04:24:50.563Z,99071.00
2022-09-15T04:27:20.770Z,99064.00
2022-09-15T04:29:52.469Z,99061.00
2022-09-15T04:32:22.020Z,99068.00
2022-09-15T04:34:50.474Z,99074.00
2022-09-15T04:37:18.970Z,99084.00
2022-09-15T04:39:48.845Z,99081.00
2022-09-15T04:42:20.632Z,99078.00
2022-09-15T04:44:49.065Z,99086.00
2022-09-15T04:47:17.507Z,99081.00
2022-09-15T04:49:45.961Z,99088.00
2022-09-15T04:52:14.548Z,99092.00
2022-09-15T04:54:43.035Z,99085.00
2022-09-15T04:57:11.936Z,99089.00
2022-09-15T04:59:41.778Z,99085.00
2022-09-15T05:02:10.322Z,99086.00
2022-09-15T05:04:38.847Z,99085.00
2022-09-15T05:07:07.240Z,99091.00
2022-09-15T05:09:35.695Z,99086.00
2022-09-15T05:12:04.200Z,99089.00
2022-09-15T05:14:32.646Z,99088.00
2022-09-15T05:17:02.434Z,99093.00
2022-09-15T05:19:30.878Z,99100.00
2022-09-15T05:21:59.375Z,99103.00
2022-09-15T05:24:27.782Z,99103.00
2022-09-15T05:26:56.219Z,99092.00
2022-09-15T05:29:24.957Z,99099.00
2022-09-15T05:31:53.507Z,99098.00
2022-09-15T05:34:23.373Z,99107.00
2022-09-15T05:36:51.810Z,99106.00
2022-09-15T05:39:20.607Z,99099.00
2022-09-15T05:41:49.079Z,99103.00
2022-09-15T05:44:17.623Z,99108.00
2022-09-15T05:46:46.249Z,99114.00
2022-09-15T05:49:14.846Z,99114.00
2022-09-15T05:51:44.785Z,99106.00
2022-09-15T05:54:13.360Z,99109.00
2022-09-15T05:56:41.887Z,99106.00
2022-09-15T05:59:10.429Z,99100.00
2022-09-15T06:01:38.929Z,99097.00
2022-09-15T06:04:07.485Z,99109.00
2022-09-15T06:06:35.910Z,99108.00
2022-09-15T06:09:07.251Z,99108.00
2022-09-15T06:11:35.757Z,99112.00
2022-09-15T06:14:06.042Z,99126.00
2022-09-15T06:16:36.051Z,99114.00
2022-09-15T06:19:04.900Z,99130.00
2022-09-15T06:21:34.460Z,99121.00
2022-09-15T06:24:07.019Z,99123.00
2022-09-15T06:26:35.800Z,99129.00
2022-09-15T06:29:06.060Z,99134.00
2022-09-15T06:31:35.657Z,99130.00
2022-09-15T06:34:05.533Z,99124.00
2022-09-15T06:36:34.207Z,99125.00
2022-09-15T06:39:02.974Z,99124.00
2022-09-15T06:41:52.937Z,99119.00
2022-09-15T06:44:22.292Z,99123.00
2022-09-15T06:46:50.934Z,99121.00
2022-09-15T06:49:20.663Z,99119.00
2022-09-15T06:51:49.373Z,99117.00
2022-09-15T06:54:18.057Z,99124.00
2022-09-15T06:56:47.940Z,99119.00
2022-09-15T06:59:17.635Z,99123.00
2022-09-15T07:01:46.548Z,99126.00
2022-09-15T07:04:15.071Z,99132.00
2022-09-15T07:06:43.543Z,99127.00
2022-09-15T07:09:13.419Z,99137.00
2022-09-15T07:11:42.338Z,99130.00
2022-09-15T07:14:13.238Z,99136.00
2022-09-15T07:16:41.953Z,99138.00
2022-09-15T07:19:10.813Z,99133.00
2022-09-15T07:21:40.069Z,99133.00
2022-09-15T07:24:10.432Z,99137.00
2022-09-15T07:26:40.942Z,99140.00
2022-09-15T07:29:12.499Z,99143.00
2022-09-15T07:31:41.516Z,99136.00
2022-09-15T07:34:10.108Z,99146.00
2022-09-15T07:36:38.795Z,99143.00
2022-09-15T07:39:07.453Z,99147.00
2022-09-15T07:41:35.980Z,99149.00
2022-09-15T07:44:04.833Z,99150.00
2022-09-15T07:46:35.198Z,99166.00
2022-09-15T07:49:04.650Z,99172.00
2022-09-15T07:51:33.277Z,99171.00
2022-09-15T07:54:02.175Z,99169.00
2022-09-15T07:56:30.846Z,99173.00
2022-09-15T07:58:59.650Z,99175.00
2022-09-15T08:01:29.304Z,99166.00
2022-09-15T08:04:00.106Z,99174.00
2022-09-15T08:06:30.157Z,99171.00
2022-09-15T08:09:00.932Z,99172.00
2022-09-15T08:11:30.447Z,99177.00
2022-09-15T08:14:01.545Z,99173.00
2022-09-15T08:16:30.780Z,99168.00
2022-09-15T08:19:01.044Z,99166.00
2022-09-15T08:21:30.159Z,99161.00
2022-09-15T08:24:01.421Z,99170.00
2022-09-15T08:26:31.061Z,99168.00
2022-09-15T08:29:00.905Z,99185.00
2022-09-15T08:31:30.060Z,99177.00
2022-09-15T08:34:04.374Z,99176.00
2022-09-15T08:36:33.152Z,99190.00
2022-09-15T08:39:02.385Z,99186.00
2022-09-15T08:41:37.828Z,99185.00
2022-09-15T08:44:20.538Z,99185.00
2022-09-15T08:46:54.764Z,99182.00
2022-09-15T08:49:50.064Z,99192.00
2022-09-15T08:52:23.441Z,99187.00
2022-09-15T08:54:54.943Z,99195.00
2022-09-15T08:57:26.766Z,99185.00
2022-09-15T08:59:55.803Z,99202.00
2022-09-15T09:03:07.663Z,99190.00
2022-09-15T09:05:46.109Z,99186.00
2022-09-15T09:08:30.586Z,99181.00
2022-09-15T09:11:05.767Z,99189.00
2022-09-15T09:13:41.950Z,99196.00
2022-09-15T09:16:31.410Z,99195.00
2022-09-15T09:19:20.981Z,99193.00
2022-09-15T09:21:57.050Z,99199.00
2022-09-15T09:24:34.231Z,99191.00
2022-09-15T09:27:02.727Z,99196.00
2022-09-15T09:29:35.777Z,99198.00
2022-09-15T09:32:11.065Z,99186.00
2022-09-15T09:34:45.122Z,99196.00
2022-09-15T09:37:16.975Z,99205.00
2022-09-15T09:39:46.830Z,99192.00
2022-09-15T09:42:18.306Z,99197.00
2022-09-15T09:44:47.144Z,99191.00
2022-09-15T09:47:15.681Z,99195.00
2022-09-15T09:49:48.492Z,99194.00
2022-09-15T09:52:34.578Z,99201.00
2022-09-15T09:55:03.691Z,99203.00
2022-09-15T09:57:33.083Z,99199.00
2022-09-15T10:00:01.705Z,99200.00
2022-09-15T10:02:31.278Z,99194.00
2022-09-15T10:05:20.115Z,99185.00
2022-09-15T10:07:50.055Z,99189.00
2022-09-15T10:10:23.857Z,99195.00
2022-09-15T10:12:56.055Z,99188.00
2022-09-15T10:15:27.247Z,99194.00
2022-09-15T10:17:57.348Z,99187.00
2022-09-15T10:20:32.450Z,99176.00
2022-09-15T10:23:07.451Z,99188.00
2022-09-15T10:26:00.113Z,99189.00
2022-09-15T10:28:27.860Z,99180.00
2022-09-15T10:31:08.025Z,99181.00
2022-09-15T10:33:37.855Z,99177.00
2022-09-15T10:36:12.327Z,99175.00
2022-09-15T10:38:48.491Z,99177.00
2022-09-15T10:41:27.170Z,99175.00
2022-09-15T10:44:28.382Z,99180.00
2022-09-15T10:47:07.703Z,99182.00
2022-09-15T10:49:55.151Z,99171.00
2022-09-15T10:52:36.276Z,99180.00
2022-09-15T10:55:31.824Z,99182.00
2022-09-15T10:58:20.422Z,99185.00
2022-09-15T11:00:59.772Z,99184.00
2022-09-15T11:03:53.014Z,99185.00
2022-09-15T11:06:25.851Z,99186.00
2022-09-15T11:09:13.154Z,99194.00
2022-09-15T11:12:03.758Z,99182.00
2022-09-15T11:14:45.394Z,99176.00
2022-09-15T11:17:50.306Z,99184.00
2022-09-15T11:20:33.800Z,99174.00
2022-09-15T11:23:11.448Z,99174.00
2022-09-15T11:25:44.724Z,99167.00
2022-09-15T11:28:20.248Z,99177.00
2022-09-15T11:30:57.919Z,99174.00
2022-09-15T11:33:32.200Z,99183.00
2022-09-15T11:36:05.806Z,99184.00
2022-09-15T11:38:47.961Z,99175.00
2022-09-15T11:41:21.048Z,99173.00
2022-09-15T11:44:01.472Z,99182.00
2022-09-15T11:46:40.035Z,99172.00
2022-09-15T11:49:14.932Z,99182.00
2022-09-15T11:51:50.637Z,99179.00
2022-09-15T11:54:29.946Z,99178.00
2022-09-15T11:57:01.334Z,99170.00
2022-09-15T11:59:40.027Z,99176.00
2022-09-15T12:02:17.610Z,99173.00
2022-09-15T12:05:00.850Z,99172.00
2022-09-15T12:07:32.780Z,99170.00
2022-09-15T12:10:14.443Z,99163.00
2022-09-15T12:12:44.995Z,99175.00
2022-09-15T12:15:27.042Z,99168.00
2022-09-15T12:18:21.386Z,99168.00
2022-09-15T12:20:59.945Z,99163.00
2022-09-15T12:23:33.962Z,99166.00
2022-09-15T12:26:18.018Z,99159.00
2022-09-15T12:28:58.780Z,99160.00
2022-09-15T12:31:32.461Z,99160.00
2022-09-15T12:34:02.573Z,99158.00
2022-09-15T12:36:44.022Z,99169.00
2022-09-15T12:39:27.642Z,99169.00
2022-09-15T12:42:05.771Z,99171.00
2022-09-15T12:44:37.652Z,99161.00
2022-09-15T12:47:18.588Z,99171.00
2022-09-15T12:49:50.902Z,99174.00
2022-09-15T12:52:22.561Z,99167.00
2022-09-15T12:54:56.618Z,99172.00
2022-09-15T12:57:28.923Z,99178.00
2022-09-15T13:00:28.898Z,99177.00
2022-09-15T13:02:59.560Z,99188.00
2022-09-15T13:05:54.789Z,99183.00
2022-09-15T13:08:59.635Z,99186.00
2022-09-15T13:11:38.003Z,99191.00
2022-09-15T13:14:24.307Z,99192.00
2022-09-15T13:16:57.122Z,99197.00
2022-09-15T13:19:32.018Z,99191.00
2022-09-15T13:22:06.016Z,99188.00
2022-09-15T13:24:48.067Z,99198.00
2022-09-15T13:27:28.984Z,99201.00
2022-09-15T13:30:09.438Z,99195.00
2022-09-15T13:32:45.521Z,99193.00
2022-09-15T13:35:56.754Z,99187.00
2022-09-15T13:38:37.463Z,99181.00
2022-09-15T13:41:32.911Z,99172.00
2022-09-15T13:44:33.192Z,99182.00
2022-09-15T13:47:21.470Z,99184.00
2022-09-15T13:49:54.399Z,99173.00
2022-09-15T13:52:52.070Z,99167.00
2022-09-15T13:55:24.123Z,99179.00
2022-09-15T14:00:56.713Z,99178.00
2022-09-15T14:03:28.871Z,99168.00
2022-09-15T14:05:57.988Z,99168.00
2022-09-15T14:08:32.415Z,99175.00
2022-09-15T14:11:06.332Z,99178.00
2022-09-15T14:13:37.301Z,99184.00
2022-09-15T14:16:11.924Z,99183.00
2022-09-15T14:18:45.983Z,99181.00
2022-09-15T14:21:19.414Z,99183.00
2022-09-15T14:23:51.412Z,99180.00
2022-09-15T14:26:22.482Z,99187.00
2022-09-15T14:28:52.859Z,99178.00
2022-09-15T14:31:30.148Z,99179.00
2022-09-15T14:33:58.885Z,99176.00
2022-09-15T14:36:29.862Z,99175.00
2022-09-15T14:39:17.824Z,99168.00
2022-09-15T14:41:47.951Z,99166.00
2022-09-15T14:47:21.849Z,99169.00
2022-09-15T14:49:50.834Z,99168.00
2022-09-15T14:52:27.220Z,99169.00
2022-09-15T14:55:02.519Z,99166.00
2022-09-15T14:57:33.293Z,99174.00
2022-09-15T15:00:05.630Z,99174.00
2022-09-15T15:02:48.921Z,99174.00
2022-09-15T15:05:22.377Z,99167.00
2022-09-15T15:07:51.644Z,99166.00
2022-09-15T15:10:25.406Z,99160.00
2022-09-15T15:12:57.246Z,99162.00
2022-09-15T15:15:26.028Z,99164.00
2022-09-15T15:17:55.488Z,99169.00
2022-09-15T15:20:25.570Z,99162.00
2022-09-15T15:23:17.996Z,99166.00
2022-09-15T15:25:48.156Z,99165.00
2022-09-15T15:28:34.041Z,99150.00
2022-09-15T15:31:14.369Z,99150.00
2022-09-15T15:33:50.495Z,99166.00
2022-09-15T15:36:23.870Z,99160.00
2022-09-15T15:38:54.943Z,99151.00
2022-09-15T15:41:27.408Z,99155.00
2022-09-15T15:43:58.317Z,99158.00
2022-09-15T15:46:46.544Z,99160.00
2022-09-15T15:49:15.065Z,99161.00
2022-09-15T15:51:43.891Z,99153.00
2022-09-15T15:54:12.658Z,99159.00
2022-09-15T15:56:42.804Z,99158.00
2022-09-15T15:59:13.366Z,99166.00
2022-09-15T16:01:41.976Z,99163.00
2022-09-15T16:04:12.178Z,99154.00
2022-09-15T16:06:41.850Z,99157.00
2022-09-15T16:09:10.740Z,99153.00
2022-09-15T16:11:39.271Z,99162.00
2022-09-15T16:14:13.413Z,99156.00
2022-09-15T16:16:42.202Z,99163.00
2022-09-15T16:19:11.417Z,99165.00
2022-09-15T16:21:42.409Z,99168.00
2022-09-15T16:24:15.046Z,99169.00
2022-09-15T16:26:43.929Z,99166.00
2022-09-15T16:29:14.071Z,99168.00
2022-09-15T16:31:43.870Z,99172.00
2022-09-15T16:34:17.589Z,99170.00
2022-09-15T16:36:46.279Z,99165.00
2022-09-15T16:39:14.915Z,99165.00
2022-09-15T16:41:43.437Z,99170.00
2022-09-15T16:44:19.856Z,99179.00
2022-09-15T16:46:48.796Z,99177.00
2022-09-15T16:49:17.443Z,99173.00
2022-09-15T16:51:46.098Z,99173.00
2022-09-15T16:54:17.762Z,99184.00
2022-09-15T16:56:47.040Z,99179.00
2022-09-15T16:59:17.070Z,99182.00
2022-09-15T17:01:45.613Z,99178.00
2022-09-15T17:04:17.034Z,99176.00
2022-09-15T17:06:45.847Z,99180.00
2022-09-15T17:09:14.359Z,99175.00
2022-09-15T17:11:43.149Z,99181.00
2022-09-15T17:14:17.894Z,99183.00
2022-09-15T17:16:47.505Z,99186.00
2022-09-15T17:19:16.104Z,99191.00
2022-09-15T17:21:44.609Z,99187.00
2022-09-15T17:24:13.130Z,99192.00
2022-09-15T17:26:41.773Z,99197.00
2022-09-15T17:29:10.301Z,99195.00
2022-09-15T17:31:40.241Z,99192.00
2022-09-15T17:34:13.812Z,99200.00
2022-09-15T17:36:42.262Z,99206.00
2022-09-15T17:39:11.173Z,99190.00
2022-09-15T17:41:39.976Z,99194.00
2022-09-15T17:44:11.636Z,99201.00
2022-09-15T17:46:41.805Z,99196.00
2022-09-15T17:49:10.567Z,99200.00
2022-09-15T17:51:39.252Z,99201.00
2022-09-15T17:54:09.865Z,99206.00
2022-09-15T17:56:40.334Z,99193.00
2022-09-15T17:59:13.080Z,99197.00
2022-09-15T18:01:46.484Z,99191.00
2022-09-15T18:04:17.321Z,99199.00
2022-09-15T18:06:46.221Z,99196.00
2022-09-15T18:09:15.898Z,99204.00
2022-09-15T18:11:44.458Z,99202.00
2022-09-15T18:14:12.978Z,99203.00
2022-09-15T18:16:42.916Z,99211.00
2022-09-15T18:19:12.924Z,99211.00
2022-09-15T18:21:41.477Z,99218.00
2022-09-15T18:24:11.052Z,99216.00
2022-09-15T18:26:39.571Z,99221.00
2022-09-15T18:29:08.133Z,99221.00
2022-09-15T18:31:36.845Z,99221.00
2022-09-15T18:34:06.146Z,99225.00
2022-09-15T18:36:35.969Z,99227.00
2022-09-15T18:39:05.206Z,99228.00
2022-09-15T18:41:37.591Z,99239.00
2022-09-15T18:44:06.382Z,99233.00
2022-09-15T18:46:34.968Z,99235.00
2022-09-15T18:49:04.686Z,99235.00
2022-09-15T18:51:50.385Z,99233.00
2022-09-15T18:54:21.189Z,99246.00
2022-09-15T18:56:49.730Z,99238.00
2022-09-15T18:59:18.351Z,99237.00
2022-09-15T19:01:46.937Z,99249.00
2022-09-15T19:04:15.651Z,99255.00
2022-09-15T19:06:44.205Z,99256.00
2022-09-15T19:09:12.721Z,99252.00
2022-09-15T19:11:42.878Z,99248.00
2022-09-15T19:14:11.879Z,99247.00
2022-09-15T19:16:57.018Z,99253.00
2022-09-15T19:19:26.748Z,99253.00
2022-09-15T19:21:55.204Z,99253.00
2022-09-15T19:24:25.324Z,99257.00
2022-09-15T19:26:55.284Z,99255.00
2022-09-15T19:29:23.972Z,99256.00
2022-09-15T19:31:52.834Z,99255.00
2022-09-15T19:34:21.831Z,99265.00
2022-09-15T19:36:50.392Z,99262.00
2022-09-15T19:39:18.880Z,99264.00
2022-09-15T19:41:47.743Z,99268.00
2022-09-15T19:44:19.885Z,99260.00
2022-09-15T19:46:48.766Z,99260.00
2022-09-15T19:49:18.566Z,99258.00
2022-09-15T19:51:52.921Z,99264.00
2022-09-15T19:54:21.758Z,99262.00
2022-09-15T19:56:51.209Z,99261.00
2022-09-15T19:59:21.881Z,99260.00
2022-09-15T20:01:50.454Z,99264.00
2022-09-15T20:04:19.180Z,99257.00
2022-09-15T20:06:47.889Z,99260.00
2022-09-15T20:09:17.713Z,99271.00
2022-09-15T20:11:46.420Z,99273.00
2022-09-15T20:14:15.291Z,99271.00
2022-09-15T20:16:45.241Z,99268.00
2022-09-15T20:19:14.029Z,99264.00
2022-09-15T20:21:50.206Z,99269.00
2022-09-15T20:24:20.853Z,99276.00
2022-09-15T20:26:52.138Z,99269.00
2022-09-15T20:29:21.490Z,99271.00
2022-09-15T20:31:51.348Z,99269.00
2022-09-15T20:34:20.116Z,99265.00
2022-09-15T20:36:48.957Z,99273.00
2022-09-15T20:39:22.133Z,99272.00
2022-09-15T20:41:50.757Z,99270.00
2022-09-15T20:44:19.334Z,99276.00
2022-09-15T20:46:48.004Z,99266.00
2022-09-15T20:49:18.159Z,99277.00
2022-09-15T20:51:46.688Z,99286.00
2022-09-15T20:54:15.283Z,99277.00
2022-09-15T20:56:44.103Z,99288.00
2022-09-15T20:59:15.172Z,99281.00
2022-09-15T21:01:44.062Z,99284.00
2022-09-15T21:04:12.915Z,99284.00
2022-09-15T21:06:43.925Z,99294.00
2022-09-15T21:09:12.489Z,99287.00
2022-09-15T21:11:43.199Z,99291.00
2022-09-15T21:14:14.169Z,99292.00
2022-09-15T21:16:43.166Z,99299.00
2022-09-15T21:19:12.647Z,99305.00
2022-09-15T21:21:41.304Z,99305.00
2022-09-15T21:24:11.505Z,99308.00
2022-09-15T21:27:01.914Z,99313.00
2022-09-15T21:29:31.725Z,99317.00
2022-09-15T21:32:00.256Z,99323.00
2022-09-15T21:34:29.058Z,99317.00
2022-09-15T21:36:58.020Z,99321.00
2022-09-15T21:39:28.062Z,99321.00
2022-09-15T21:41:58.885Z,99330.00
2022-09-15T21:44:28.118Z,99323.00
2022-09-15T21:46:56.496Z,99338.00
2022-09-15T21:49:25.206Z,99332.00
2022-09-15T21:51:54.258Z,99332.00
2022-09-15T21:54:22.841Z,99333.00
2022-09-15T21:56:52.756Z,99332.00
2022-09-15T21:59:21.181Z,99326.00
2022-09-15T22:01:49.700Z,99322.00
2022-09-15T22:04:18.215Z,99329.00
2022-09-15T22:06:47.337Z,99311.00
2022-09-15T22:09:18.233Z,99325.00
2022-09-15T22:11:46.725Z,99327.00
2022-09-15T22:14:17.028Z,99325.00
2022-09-15T22:16:45.582Z,99327.00
2022-09-15T22:19:17.116Z,99324.00
2022-09-15T22:21:45.583Z,99334.00
2022-09-15T22:24:15.176Z,99344.00
2022-09-15T22:26:44.780Z,99344.00
2022-09-15T22:29:14.905Z,99333.00
2022-09-15T22:31:43.523Z,99339.00
2022-09-15T22:34:12.188Z,99337.00
2022-09-15T22:36:40.693Z,99330.00
2022-09-15T22:39:09.165Z,99332.00
2022-09-15T22:41:39.899Z,99332.00
2022-09-15T22:44:17.381Z,99329.00
2022-09-15T22:46:47.177Z,99328.00
2022-09-15T22:49:15.650Z,99333.00
2022-09-15T22:51:44.317Z,99326.00
2022-09-15T22:54:12.706Z,99337.00
2022-09-15T22:56:41.235Z,99339.00
2022-09-15T22:59:09.821Z,99363.00
2022-09-15T23:01:38.446Z,99341.00
2022-09-15T23:04:08.373Z,99377.00
2022-09-15T23:06:37.354Z,99365.00
2022-09-15T23:09:07.477Z,99368.00
2022-09-15T23:11:39.608Z,99359.00
2022-09-15T23:14:09.000Z,99371.00
2022-09-15T23:16:37.544Z,99365.00
2022-09-15T23:19:07.588Z,99366.00
2022-09-15T23:21:36.494Z,99372.00
2022-09-15T23:24:05.632Z,99368.00
2022-09-15T23:26:34.448Z,99365.00
2022-09-15T23:29:03.000Z,99353.00
2022-09-15T23:31:31.490Z,99350.00
2022-09-15T23:34:00.291Z,99350.00
2022-09-15T23:36:30.215Z,99356.00
2022-09-15T23:38:58.704Z,99357.00
2022-09-15T23:41:27.675Z,99358.00
2022-09-15T23:43:56.950Z,99354.00
2022-09-15T23:46:25.463Z,99342.00
2022-09-15T23:48:53.923Z,99346.00
2022-09-15T23:51:22.411Z,99348.00
2022-09-15T23:53:52.336Z,99351.00
2022-09-15T23:56:21.493Z,99346.00
2022-09-15T23:58:49.943Z,99351.00
